Дата Пункты Температура Давл., мм. Влажн., % Ветер Погодные явления
Воздуха Воды Направл. Скорость
22.07.19 09:00 Одесса 26.0 22.0 758 57 З 1 21 ГОДИНУ
22.07.19 06:00 Одесса 27.0 22.0 758 63 Пд-З 2 18 ГОДИН
22.07.19 03:00 Одесса 28.0 22.0 758 55 Пд 3 15 ГОДИН
22.07.19 12:00 Одесса 29.0 22.0 759 46 Пд 3 12 ГОДИН
22.07.19 09:00 Одесса 26.0 22.0 759 59 Пн 0 09 ГОДИН
22.07.19 06:00 Одесса 20.0 21.0 759 81 Пн 0 06 ГОДИН
22.07.19 03:00 Одесса 22.0 21.0 760 77 З 1 03 ГОДИНИ
21.07.19 09:00 Одесса 25.0 21.0 760 56 З 3 21 ГОДИНУ
21.07.19 06:00 Одесса 26.0 21.0 760 60 Пд 2 18 ГОДИН
21.07.19 03:00 Одесса 28.0 21.0 760 54 Пд 4 15 ГОДИН
21.07.19 12:00 Одесса 26.0 21.0 761 64 Пд 4 12 ГОДИН
21.07.19 09:00 Одесса 24.0 21.0 761 69 С 1 09 ГОДИН
21.07.19 06:00 Одесса 21.0 21.0 761 76 Пн 0 06 ГОДИН
21.07.19 03:00 Одесса 21.0 21.0 761 77 Пн 0 03 ГОДИНИ
20.07.19 09:00 Одесса 23.0 21.0 761 66 Пн 0 21 ГОДИНУ
20.07.19 06:00 Одесса 26.0 20.0 760 61 Пд 2 18 ГОДИН
20.07.19 03:00 Одесса 25.0 20.0 761 66 Пд 5 15 ГОДИН
20.07.19 12:00 Одесса 25.0 21.0 761 65 Пд 3 12 ГОДИН
20.07.19 09:00 Одесса 24.0 21.0 761 74 Пд-С 2 09 ГОДИН
20.07.19 06:00 Одесса 19.0 20.0 761 89 Пн 0 06 ГОДИН
Количество строк
1 2 3 4 5 6 7 8 9 10
Page 1 of 511